Terminal Aerodrome Forecast
Issued by NWS Twin Cities, MN

Home | Current Version | Previous Version | Text Only | Print | Product List | Glossary Off
Versions: 1 2 3 4 5 6 7 8 9 10 11 12 13 14 15 16 17 18 19 20 21 22 23 24 25 26 27 28 29 30 31 32 33 34

000
FTUS43 KMPX 270500 AAA
TAFMSP
TAF AMD
KMSP 270520Z 2705/2806 04003KT P6SM BKN100 BKN250
      TEMPO 2705/2706 P6SM -SHRA
     FM271500 11006KT P6SM SCT100 BKN250=

USA.gov is the U.S. government's official web portal to all federal, state and local government web resources and services.